Time;durP1;ratioP1;P1;durP2;ratioP2;P2;SDS_P1;SDS_P2;PMS_P1;PMS_P2;Temp;Humidity;BMP_temperature;BMP_pressure;BME280_temperature;BME280_humidity;BME280_pressure;Samples;Min_cycle;Max_cycle;Signal;HPM_P1;HPM_P2
2023/11/08 00:01:18;;;;;;;4.22;1.10;;;10.60;99.90;;;;;;5051736;28;20029;-69
2023/11/08 00:03:44;;;;;;;6.20;1.30;;;10.70;99.90;;;;;;5050533;28;20086;-69
2023/11/08 00:06:11;;;;;;;3.20;1.00;;;10.70;99.90;;;;;;5051760;28;20040;-69
2023/11/08 00:08:37;;;;;;;7.88;1.67;;;10.80;99.90;;;;;;5051641;28;20647;-70
2023/11/08 00:11:03;;;;;;;2.70;1.10;;;10.80;99.90;;;;;;5051122;28;20075;-69
2023/11/08 00:13:29;;;;;;;6.45;1.40;;;10.80;99.90;;;;;;5051396;28;20040;-70
2023/11/08 00:15:54;;;;;;;10.35;2.13;;;10.80;99.90;;;;;;5051679;28;20487;-69
2023/11/08 00:18:20;;;;;;;7.32;1.20;;;10.70;99.90;;;;;;5051105;28;20029;-69
2023/11/08 00:20:46;;;;;;;5.40;1.55;;;10.80;99.90;;;;;;5047540;28;20083;-69
2023/11/08 00:23:13;;;;;;;5.00;1.45;;;10.70;99.90;;;;;;5047197;28;20560;-69
2023/11/08 00:25:39;;;;;;;5.45;1.08;;;10.70;99.90;;;;;;5047368;28;20478;-69
2023/11/08 00:28:04;;;;;;;2.95;1.17;;;10.70;99.90;;;;;;5045823;28;20039;-68
2023/11/08 00:30:30;;;;;;;4.85;1.52;;;10.80;99.90;;;;;;5050359;28;20493;-69
2023/11/08 00:32:55;;;;;;;8.40;1.60;;;10.80;99.90;;;;;;5051477;28;20056;-69
2023/11/08 00:35:21;;;;;;;8.52;1.50;;;10.90;99.90;;;;;;5046096;28;20025;-69
2023/11/08 00:37:47;;;;;;;6.30;1.50;;;10.80;99.90;;;;;;5049591;28;20036;-68
2023/11/08 00:40:12;;;;;;;6.40;1.08;;;10.80;99.90;;;;;;5045578;28;20033;-69
2023/11/08 00:42:40;;;;;;;2.67;1.13;;;10.90;99.90;;;;;;5049979;28;20024;-69
2023/11/08 00:45:09;;;;;;;3.85;1.25;;;10.90;99.90;;;;;;5050124;28;20037;-69
2023/11/08 00:47:34;;;;;;;5.28;1.40;;;10.80;99.90;;;;;;5048804;28;20033;-68
2023/11/08 00:50:00;;;;;;;2.70;1.38;;;10.80;99.90;;;;;;5050440;28;20047;-70
2023/11/08 00:52:25;;;;;;;6.20;1.77;;;10.80;99.90;;;;;;5050022;28;20064;-69
2023/11/08 00:54:51;;;;;;;2.90;1.23;;;10.80;99.90;;;;;;5048632;28;20037;-69
2023/11/08 00:57:16;;;;;;;3.80;1.30;;;10.90;99.90;;;;;;5048731;28;20017;-71
2023/11/08 00:59:42;;;;;;;4.05;1.35;;;10.80;99.90;;;;;;5047055;28;20037;-69
2023/11/08 01:02:08;;;;;;;8.75;1.80;;;10.90;99.90;;;;;;5048265;28;20037;-69
2023/11/08 01:04:34;;;;;;;8.13;1.90;;;10.90;99.90;;;;;;5050169;28;20410;-69
2023/11/08 01:07:02;;;;;;;8.85;1.92;;;10.80;99.90;;;;;;5049358;28;20033;-69
2023/11/08 01:09:27;;;;;;;;;;;10.80;99.90;;;;;;5047650;28;20037;-69
2023/11/08 01:11:55;;;;;;;3.65;1.88;;;10.80;99.90;;;;;;5050095;28;19908;-70
2023/11/08 01:14:21;;;;;;;10.68;2.03;;;10.90;99.90;;;;;;5041505;28;20028;-69
2023/11/08 01:16:47;;;;;;;4.82;1.90;;;10.90;99.90;;;;;;5047790;28;20021;-69
2023/11/08 01:19:15;;;;;;;5.70;1.95;;;10.90;99.90;;;;;;5049279;28;20163;-67
2023/11/08 01:21:45;;;;;;;9.05;2.13;;;10.90;99.90;;;;;;5050646;28;20037;-67
2023/11/08 01:24:15;;;;;;;7.22;2.40;;;11.00;99.90;;;;;;5045998;28;20024;-67
2023/11/08 01:26:40;;;;;;;4.68;1.98;;;11.00;99.90;;;;;;5048476;28;20093;-67
2023/11/08 01:29:06;;;;;;;7.70;2.38;;;11.00;99.90;;;;;;5048377;28;20025;-67
2023/11/08 01:31:32;;;;;;;8.35;2.05;;;10.90;99.90;;;;;;5049445;28;20557;-67
2023/11/08 01:33:58;;;;;;;8.50;2.95;;;10.90;99.90;;;;;;5048930;28;20032;-67
2023/11/08 01:36:26;;;;;;;8.95;2.65;;;10.90;99.90;;;;;;5048103;28;20061;-67
2023/11/08 01:38:56;;;;;;;5.70;2.78;;;10.90;99.90;;;;;;5049725;28;20474;-67
2023/11/08 01:41:21;;;;;;;11.18;3.08;;;10.90;99.90;;;;;;5049190;28;20033;-67
2023/11/08 01:43:47;;;;;;;12.63;3.10;;;10.90;99.90;;;;;;5048692;28;20462;-67
2023/11/08 01:46:25;;;;;;;8.43;2.75;;;10.90;99.90;;;;;;5046282;28;20033;-67
2023/11/08 01:48:54;;;;;;;5.45;2.88;;;10.90;99.90;;;;;;5046640;28;20032;-67
2023/11/08 01:51:23;;;;;;;7.75;3.00;;;10.90;99.90;;;;;;5045545;28;20047;-67
2023/11/08 01:53:53;;;;;;;10.32;2.85;;;10.90;99.90;;;;;;5042987;28;20025;-67
2023/11/08 01:56:19;;;;;;;10.02;3.38;;;10.80;99.90;;;;;;5042322;28;20107;-67
2023/11/08 01:58:47;;;;;;;7.15;3.42;;;10.80;99.90;;;;;;5043497;28;20100;-68
2023/11/08 02:01:13;;;;;;;8.50;3.88;;;10.90;99.90;;;;;;5040294;28;20477;-67
2023/11/08 02:03:42;;;;;;;8.60;3.75;;;11.00;99.90;;;;;;5040351;28;20060;-67
2023/11/08 02:06:13;;;;;;;13.32;4.47;;;11.00;99.90;;;;;;5042236;28;20502;-67
2023/11/08 02:08:39;;;;;;;7.32;3.28;;;10.90;99.90;;;;;;5043115;28;20029;-67
2023/11/08 02:11:07;;;;;;;6.60;3.47;;;10.90;99.90;;;;;;5044175;28;21693;-67
2023/11/08 02:13:33;;;;;;;6.72;3.35;;;11.00;99.90;;;;;;5044218;28;20121;-67
2023/11/08 02:15:59;;;;;;;5.90;3.47;;;10.90;99.90;;;;;;5043692;28;20039;-67
2023/11/08 02:18:30;;;;;;;7.35;3.88;;;10.90;99.90;;;;;;5042170;28;20076;-67
2023/11/08 02:20:57;;;;;;;10.80;3.00;;;10.90;99.90;;;;;;5042062;28;20025;-67
2023/11/08 02:23:22;;;;;;;7.53;3.28;;;11.00;99.90;;;;;;5043053;28;20028;-67
2023/11/08 02:25:50;;;;;;;9.57;3.33;;;10.90;99.90;;;;;;5047562;28;20162;-67
2023/11/08 02:28:16;;;;;;;7.35;3.35;;;10.90;99.90;;;;;;5044290;28;20021;-67
2023/11/08 02:30:41;;;;;;;9.10;3.22;;;10.80;99.90;;;;;;5046301;28;20115;-67
2023/11/08 02:33:09;;;;;;;7.75;2.83;;;10.90;99.90;;;;;;5048549;28;20025;-67
2023/11/08 02:35:35;;;;;;;7.28;2.60;;;10.90;99.90;;;;;;5046437;28;20028;-67
2023/11/08 02:38:04;;;;;;;3.42;2.67;;;10.80;99.90;;;;;;5044902;28;20513;-67
2023/11/08 02:40:30;;;;;;;6.03;2.75;;;10.90;99.90;;;;;;5046286;28;20051;-67
2023/11/08 02:42:55;;;;;;;4.05;2.50;;;10.90;99.90;;;;;;5047008;28;20108;-67
2023/11/08 02:45:21;;;;;;;6.18;2.83;;;10.90;99.90;;;;;;5046751;28;20108;-68
2023/11/08 02:47:47;;;;;;;6.70;3.03;;;10.90;99.90;;;;;;5047547;28;20033;-67
2023/11/08 02:50:13;;;;;;;5.70;3.03;;;10.80;99.90;;;;;;5044510;28;20080;-67
2023/11/08 02:52:38;;;;;;;7.15;2.75;;;10.90;99.90;;;;;;5047868;28;20060;-67
2023/11/08 02:55:04;;;;;;;5.68;2.85;;;10.90;99.90;;;;;;5046811;28;20033;-68
2023/11/08 02:57:32;;;;;;;4.68;2.95;;;10.90;99.90;;;;;;5046883;28;20108;-67
2023/11/08 02:59:57;;;;;;;9.70;2.97;;;10.90;99.90;;;;;;5045888;28;20474;-67
2023/11/08 03:02:23;;;;;;;4.47;3.00;;;10.90;99.90;;;;;;5046172;28;20068;-67
2023/11/08 03:04:56;;;;;;;3.25;2.83;;;10.90;99.90;;;;;;5046478;28;20033;-67
2023/11/08 03:07:21;;;;;;;5.30;3.15;;;11.00;99.90;;;;;;5043997;28;20025;-67
2023/11/08 03:09:47;;;;;;;9.65;3.70;;;11.00;99.90;;;;;;5047109;28;20932;-67
2023/11/08 03:12:13;;;;;;;5.55;3.30;;;10.90;99.90;;;;;;5046289;28;20041;-67
2023/11/08 03:14:39;;;;;;;6.45;3.45;;;10.90;99.90;;;;;;5051469;28;20025;-67
2023/11/08 03:17:04;;;;;;;6.78;3.42;;;10.90;99.90;;;;;;5050580;28;20025;-67
2023/11/08 03:19:30;;;;;;;8.38;3.65;;;10.80;99.90;;;;;;5050176;28;20411;-67
2023/11/08 03:21:56;;;;;;;7.00;3.22;;;10.90;99.90;;;;;;5051764;28;20024;-67
2023/11/08 03:24:24;;;;;;;8.68;3.08;;;10.80;99.90;;;;;;5050117;28;20028;-67
2023/11/08 03:26:52;;;;;;;6.40;3.00;;;10.80;99.90;;;;;;5050952;28;20033;-67
2023/11/08 03:29:20;;;;;;;5.18;3.00;;;10.80;99.90;;;;;;5052807;28;20025;-67
2023/11/08 03:31:48;;;;;;;6.10;3.25;;;10.80;99.90;;;;;;5047869;28;20137;-67
2023/11/08 03:34:14;;;;;;;6.60;3.05;;;10.80;99.90;;;;;;5051767;28;20041;-67
2023/11/08 03:36:42;;;;;;;5.53;2.92;;;10.90;99.90;;;;;;5051783;28;20144;-67
2023/11/08 03:39:09;;;;;;;7.28;3.08;;;10.90;99.90;;;;;;5051670;28;20394;-67
2023/11/08 03:41:37;;;;;;;3.60;2.87;;;10.90;99.90;;;;;;5050624;28;20861;-67
2023/11/08 03:44:05;;;;;;;5.35;3.20;;;10.90;99.90;;;;;;5051125;28;20390;-67
2023/11/08 03:46:31;;;;;;;5.47;3.30;;;10.90;99.90;;;;;;5050664;28;20029;-67
2023/11/08 03:48:58;;;;;;;10.38;3.60;;;10.90;99.90;;;;;;5050144;28;20033;-67
2023/11/08 03:51:24;;;;;;;5.18;2.83;;;10.90;99.90;;;;;;5047924;28;20040;-67
2023/11/08 03:53:50;;;;;;;6.35;3.40;;;10.90;99.90;;;;;;5048388;28;20017;-67
2023/11/08 03:56:17;;;;;;;6.38;2.65;;;10.80;99.90;;;;;;5051057;28;20028;-67
2023/11/08 03:58:44;;;;;;;6.30;3.10;;;10.80;99.90;;;;;;5050800;28;20542;-67
2023/11/08 04:01:10;;;;;;;5.50;3.05;;;10.80;99.90;;;;;;5050250;28;20025;-67
2023/11/08 04:03:36;;;;;;;10.05;3.10;;;10.80;99.90;;;;;;5050530;28;20043;-67
2023/11/08 04:06:01;;;;;;;5.03;2.78;;;10.80;99.90;;;;;;5050704;28;20064;-68
2023/11/08 04:08:30;;;;;;;7.72;3.55;;;10.80;99.90;;;;;;5049974;28;20048;-67
2023/11/08 04:10:55;;;;;;;9.80;3.38;;;10.90;99.90;;;;;;5047043;28;20033;-67
2023/11/08 04:13:21;;;;;;;4.70;2.85;;;10.80;99.90;;;;;;5051485;28;20082;-67
2023/11/08 04:15:51;;;;;;;7.72;3.70;;;10.80;99.90;;;;;;5047915;28;20048;-67
2023/11/08 04:18:17;;;;;;;6.43;3.45;;;10.80;99.90;;;;;;5050650;28;20029;-67
2023/11/08 04:20:45;;;;;;;5.90;3.03;;;10.70;99.90;;;;;;5050735;28;20422;-67
2023/11/08 04:23:11;;;;;;;7.63;3.08;;;10.80;99.90;;;;;;5048451;28;20028;-67
2023/11/08 04:25:37;;;;;;;5.10;3.33;;;10.80;99.90;;;;;;5049452;28;20048;-67
2023/11/08 04:28:06;;;;;;;5.13;3.35;;;10.80;99.90;;;;;;5050418;28;20047;-67
2023/11/08 04:30:31;;;;;;;6.10;3.53;;;10.80;99.90;;;;;;5050279;28;20478;-67
2023/11/08 04:32:59;;;;;;;3.83;2.80;;;10.70;99.90;;;;;;5049839;28;20085;-67
2023/11/08 04:35:27;;;;;;;10.95;3.88;;;10.80;99.90;;;;;;5050313;28;20021;-67
2023/11/08 04:37:52;;;;;;;8.30;3.45;;;10.80;99.90;;;;;;5048672;28;20099;-67
2023/11/08 04:40:18;;;;;;;6.32;3.28;;;10.80;99.90;;;;;;5048592;28;20025;-67
2023/11/08 04:42:46;;;;;;;6.57;3.38;;;10.80;99.90;;;;;;5049561;28;20831;-67
2023/11/08 04:45:14;;;;;;;5.63;3.17;;;10.90;99.90;;;;;;5048251;28;20107;-67
2023/11/08 04:47:39;;;;;;;4.68;3.22;;;10.70;99.90;;;;;;5051196;28;20063;-67
2023/11/08 04:50:11;;;;;;;10.98;4.35;;;10.70;99.90;;;;;;5050945;28;20068;-67
2023/11/08 04:52:36;;;;;;;7.80;4.32;;;10.70;99.90;;;;;;5050138;28;20029;-68
2023/11/08 04:55:02;;;;;;;10.77;4.65;;;10.80;99.90;;;;;;5049078;28;20021;-68
2023/11/08 04:57:29;;;;;;;7.60;3.97;;;10.80;99.90;;;;;;5050032;28;20123;-68
2023/11/08 04:59:54;;;;;;;8.40;4.03;;;10.80;99.90;;;;;;5048758;28;20078;-68
2023/11/08 05:02:20;;;;;;;7.68;4.72;;;10.80;99.90;;;;;;5049769;28;20033;-67
2023/11/08 05:04:49;;;;;;;7.30;4.60;;;10.80;99.90;;;;;;5049676;28;20037;-68
2023/11/08 05:07:20;;;;;;;9.52;4.93;;;10.70;99.90;;;;;;5050471;28;20483;-68
2023/11/08 05:09:45;;;;;;;12.40;4.55;;;10.70;99.90;;;;;;5049517;28;20044;-68
2023/11/08 05:12:15;;;;;;;11.57;4.22;;;10.80;99.90;;;;;;5048531;28;20098;-67
2023/11/08 05:14:41;;;;;;;11.38;4.78;;;10.80;99.90;;;;;;5048800;28;20509;-68
2023/11/08 05:17:07;;;;;;;13.43;4.47;;;10.80;99.90;;;;;;5048639;28;20112;-68
2023/11/08 05:19:32;;;;;;;7.72;4.00;;;10.80;99.90;;;;;;5049469;28;20128;-68
2023/11/08 05:22:01;;;;;;;7.47;3.70;;;10.80;99.90;;;;;;5051276;28;20479;-68
2023/11/08 05:24:27;;;;;;;;;;;10.80;99.90;;;;;;5048374;28;20461;-68
2023/11/08 05:26:53;;;;;;;11.40;4.00;;;10.80;99.90;;;;;;5048414;28;19913;-68
2023/11/08 05:29:19;;;;;;;7.72;4.22;;;10.80;99.90;;;;;;5049244;28;20497;-68
2023/11/08 05:31:47;;;;;;;6.82;3.72;;;10.70;99.90;;;;;;5049440;28;20025;-68
2023/11/08 05:34:15;;;;;;;6.53;3.75;;;10.70;99.90;;;;;;5045347;28;20025;-68
2023/11/08 05:36:43;;;;;;;9.88;4.03;;;10.80;99.90;;;;;;5048517;28;20040;-68
2023/11/08 05:39:08;;;;;;;10.25;3.70;;;10.80;99.90;;;;;;5048718;28;20120;-68
2023/11/08 05:41:35;;;;;;;6.72;3.60;;;10.80;99.90;;;;;;5046284;28;20115;-68
2023/11/08 05:44:03;;;;;;;10.48;3.55;;;10.70;99.90;;;;;;5048135;28;22009;-68
2023/11/08 05:46:30;;;;;;;6.47;3.95;;;10.70;99.90;;;;;;5046734;28;20028;-68
2023/11/08 05:48:55;;;;;;;6.57;3.92;;;10.70;99.90;;;;;;5047105;28;20086;-68
2023/11/08 05:51:22;;;;;;;9.00;4.13;;;10.70;99.90;;;;;;5047960;28;20025;-68
2023/11/08 05:53:48;;;;;;;11.20;3.95;;;10.70;99.90;;;;;;5048712;28;20052;-68
2023/11/08 05:56:16;;;;;;;11.20;4.05;;;10.80;99.90;;;;;;5041366;28;20068;-68
2023/11/08 05:58:44;;;;;;;5.93;3.85;;;10.80;99.90;;;;;;5046505;28;21123;-68
2023/11/08 06:01:14;;;;;;;7.93;4.28;;;10.80;99.90;;;;;;5049115;28;20150;-68
2023/11/08 06:03:40;;;;;;;16.80;5.68;;;10.80;99.90;;;;;;5045255;28;20063;-68
2023/11/08 06:06:06;;;;;;;13.45;4.50;;;10.90;99.90;;;;;;5046975;28;20053;-68
2023/11/08 06:08:34;;;;;;;10.05;3.97;;;10.90;99.90;;;;;;5047414;28;20037;-68
2023/11/08 06:10:59;;;;;;;10.63;5.32;;;10.80;99.90;;;;;;5048326;28;20025;-68
2023/11/08 06:13:25;;;;;;;9.88;4.22;;;10.80;99.90;;;;;;5045489;28;20085;-68
2023/11/08 06:15:50;;;;;;;8.95;4.45;;;10.80;99.90;;;;;;5044880;28;20025;-68
2023/11/08 06:18:24;;;;;;;8.52;4.70;;;10.80;99.90;;;;;;5047692;28;20020;-68
2023/11/08 06:20:49;;;;;;;10.45;4.97;;;10.70;99.90;;;;;;5046780;28;20032;-69
2023/11/08 06:23:17;;;;;;;13.00;4.85;;;10.80;99.90;;;;;;5048513;28;20546;-68
2023/11/08 06:25:45;;;;;;;;;;;10.80;99.90;;;;;;5049066;28;20410;-68
2023/11/08 06:28:11;;;;;;;7.85;4.53;;;10.80;99.90;;;;;;5044213;28;19909;-68
2023/11/08 06:30:39;;;;;;;8.82;5.28;;;10.80;99.90;;;;;;5047180;28;20070;-68
2023/11/08 06:33:07;;;;;;;;;;;10.80;99.90;;;;;;5049466;28;20029;-68
2023/11/08 06:35:35;;;;;;;11.15;4.57;;;10.90;99.90;;;;;;5046532;28;19951;-68
2023/11/08 06:38:03;;;;;;;11.02;5.32;;;10.80;99.90;;;;;;5048382;28;20497;-68
2023/11/08 06:40:29;;;;;;;;;;;10.80;99.90;;;;;;5047028;28;20029;-68
2023/11/08 06:42:55;;;;;;;7.13;4.18;;;10.80;99.90;;;;;;5046441;28;19924;-67
2023/11/08 06:45:21;;;;;;;10.60;5.15;;;10.80;99.90;;;;;;5047623;28;20086;-67
2023/11/08 06:47:49;;;;;;;8.05;4.68;;;10.90;99.90;;;;;;5046542;28;20057;-68
2023/11/08 06:50:14;;;;;;;6.78;4.32;;;10.90;99.90;;;;;;5047501;28;20116;-68
2023/11/08 06:52:42;;;;;;;7.32;4.25;;;10.80;99.90;;;;;;5047739;28;20170;-67
2023/11/08 06:55:08;;;;;;;8.25;4.40;;;10.80;99.90;;;;;;5045000;28;20772;-67
2023/11/08 06:57:36;;;;;;;11.77;4.45;;;10.90;99.90;;;;;;5047746;28;20032;-68
2023/11/08 07:00:07;;;;;;;;;;;10.90;99.90;;;;;;5046500;28;20112;-64
2023/11/08 07:02:32;;;;;;;6.68;3.78;;;10.90;99.90;;;;;;5047822;28;20639;-67
2023/11/08 07:04:58;;;;;;;9.98;4.30;;;10.80;99.90;;;;;;5045619;28;20067;-67
2023/11/08 07:07:26;;;;;;;8.13;3.95;;;10.80;99.90;;;;;;5047981;28;20386;-67
2023/11/08 07:09:51;;;;;;;11.20;4.00;;;10.90;99.90;;;;;;5047231;28;20060;-67
2023/11/08 07:12:19;;;;;;;10.70;4.78;;;10.90;99.90;;;;;;5048358;28;20481;-67
2023/11/08 07:14:44;;;;;;;10.52;4.32;;;10.90;99.90;;;;;;5048193;28;20033;-68
2023/11/08 07:17:10;;;;;;;5.55;4.03;;;10.90;99.90;;;;;;5048258;28;20021;-67
2023/11/08 07:19:38;;;;;;;7.13;4.03;;;10.90;99.90;;;;;;5051064;28;20029;-68
2023/11/08 07:22:07;;;;;;;8.88;4.35;;;10.90;99.90;;;;;;5042535;28;20033;-68
2023/11/08 07:24:33;;;;;;;6.82;4.15;;;11.00;99.90;;;;;;5042108;28;20041;-68
2023/11/08 07:27:02;;;;;;;6.43;3.40;;;11.00;99.90;;;;;;5043878;28;20503;-68
2023/11/08 07:29:30;;;;;;;6.45;3.85;;;11.00;99.90;;;;;;5042601;28;20025;-67
2023/11/08 07:31:58;;;;;;;4.68;3.35;;;11.00;99.90;;;;;;5036314;28;20037;-67
2023/11/08 07:34:26;;;;;;;10.23;3.85;;;11.00;99.90;;;;;;5033282;28;20039;-67
2023/11/08 07:36:54;;;;;;;9.55;5.38;;;11.10;99.90;;;;;;5028569;28;20145;-68
2023/11/08 07:39:19;;;;;;;10.30;4.00;;;11.10;99.90;;;;;;5031998;28;20525;-67
2023/11/08 07:41:45;;;;;;;7.55;4.97;;;11.10;99.90;;;;;;5031588;28;20033;-68
2023/11/08 07:44:10;;;;;;;10.05;4.20;;;11.10;99.90;;;;;;5033085;28;20033;-68
2023/11/08 07:46:38;;;;;;;9.93;5.15;;;11.10;99.90;;;;;;5033957;28;20034;-68
2023/11/08 07:49:06;;;;;;;7.50;4.28;;;11.10;99.90;;;;;;5029198;28;20108;-68
2023/11/08 07:51:32;;;;;;;8.07;4.93;;;11.10;99.90;;;;;;5033867;28;20037;-68
2023/11/08 07:53:59;;;;;;;11.95;5.10;;;11.10;99.90;;;;;;5033200;28;20052;-68
2023/11/08 07:56:25;;;;;;;6.82;4.30;;;11.10;99.90;;;;;;5040741;28;20486;-68
2023/11/08 07:58:52;;;;;;;6.60;4.43;;;11.10;99.90;;;;;;5045745;28;20021;-67
2023/11/08 08:01:18;;;;;;;9.55;4.72;;;11.20;99.90;;;;;;5048934;28;20276;-68
2023/11/08 08:03:45;;;;;;;6.28;4.95;;;11.20;99.90;;;;;;5048880;28;20082;-67
2023/11/08 08:06:14;;;;;;;9.48;5.05;;;11.20;99.90;;;;;;5050003;28;20051;-67
2023/11/08 08:08:43;;;;;;;9.88;4.78;;;11.10;99.90;;;;;;5047126;28;20036;-67
2023/11/08 08:11:10;;;;;;;6.53;4.82;;;11.20;99.90;;;;;;5049564;28;20017;-68
2023/11/08 08:13:36;;;;;;;7.13;4.37;;;11.20;99.90;;;;;;5050354;28;20120;-67
2023/11/08 08:16:02;;;;;;;8.32;4.57;;;11.20;99.90;;;;;;5048548;28;20270;-68
2023/11/08 08:18:28;;;;;;;9.68;5.10;;;11.20;99.90;;;;;;5042734;28;20116;-67
2023/11/08 08:20:56;;;;;;;8.85;4.50;;;11.20;99.90;;;;;;5050829;28;20145;-67
2023/11/08 08:23:24;;;;;;;15.13;4.75;;;11.30;99.90;;;;;;5049231;28;20404;-67
2023/11/08 08:25:49;;;;;;;7.75;5.10;;;11.20;99.90;;;;;;5045948;28;20036;-68
2023/11/08 08:28:15;;;;;;;12.73;5.88;;;11.20;99.90;;;;;;5050598;28;20178;-67
2023/11/08 08:30:40;;;;;;;12.43;5.18;;;11.20;99.90;;;;;;5050135;28;20041;-67
2023/11/08 08:33:06;;;;;;;10.35;4.70;;;11.20;99.90;;;;;;5050596;28;20025;-69
2023/11/08 08:35:32;;;;;;;9.15;5.15;;;11.20;99.90;;;;;;5047930;28;20044;-68
2023/11/08 08:38:00;;;;;;;9.40;4.50;;;11.30;99.90;;;;;;5048335;28;20036;-67
2023/11/08 08:40:30;;;;;;;7.57;4.63;;;11.30;99.90;;;;;;5048055;28;20016;-68
2023/11/08 08:43:00;;;;;;;9.25;4.45;;;11.40;99.90;;;;;;5040726;28;20037;-69
2023/11/08 08:45:25;;;;;;;8.18;5.20;;;11.30;99.90;;;;;;5052768;28;20029;-69
2023/11/08 08:47:53;;;;;;;13.38;4.97;;;11.30;99.90;;;;;;5049287;28;20446;-68
2023/11/08 08:50:21;;;;;;;;;;;11.30;99.90;;;;;;5050292;28;20211;-68
2023/11/08 08:52:49;;;;;;;8.85;4.70;;;11.30;99.90;;;;;;5049307;28;20011;-68
2023/11/08 08:55:18;;;;;;;7.57;4.43;;;11.30;99.90;;;;;;5045456;28;20132;-67
2023/11/08 08:57:46;;;;;;;16.27;4.50;;;11.40;99.90;;;;;;5043522;28;20021;-68
2023/11/08 09:00:14;;;;;;;6.93;4.05;;;11.30;99.90;;;;;;5048576;28;20202;-68
2023/11/08 09:02:40;;;;;;;;;;;11.30;99.90;;;;;;5063754;22;20052;-68
2023/11/08 09:05:06;;;;;;;8.57;4.15;;;11.40;99.90;;;;;;5028062;28;19992;-68
2023/11/08 09:07:32;;;;;;;14.63;4.50;;;11.40;99.90;;;;;;5023266;28;20026;-68
2023/11/08 09:09:58;;;;;;;8.32;4.80;;;11.30;99.90;;;;;;5026890;28;20034;-68
2023/11/08 09:12:24;;;;;;;10.45;5.10;;;11.30;99.90;;;;;;5027734;28;20103;-69
2023/11/08 09:14:52;;;;;;;12.55;4.55;;;11.40;99.90;;;;;;5028581;28;20560;-69
2023/11/08 09:17:19;;;;;;;9.60;3.88;;;11.40;99.90;;;;;;5027790;28;20014;-69
2023/11/08 09:19:45;;;;;;;9.43;3.90;;;11.40;99.90;;;;;;5026684;28;20022;-69
2023/11/08 09:22:12;;;;;;;12.43;3.90;;;11.30;99.90;;;;;;5030115;28;20383;-69
2023/11/08 09:24:41;;;;;;;7.85;4.10;;;11.30;99.90;;;;;;5024697;28;20034;-69
2023/11/08 09:27:09;;;;;;;7.85;3.58;;;11.30;99.90;;;;;;5021998;28;20084;-69
2023/11/08 09:29:37;;;;;;;5.43;3.50;;;11.30;99.90;;;;;;5024163;28;20034;-69
2023/11/08 09:32:04;;;;;;;5.13;3.08;;;11.40;99.90;;;;;;5028535;28;20044;-69
2023/11/08 09:34:33;;;;;;;5.30;3.40;;;11.40;99.90;;;;;;5026313;28;20084;-69
2023/11/08 09:37:02;;;;;;;8.68;3.70;;;11.50;99.90;;;;;;5030029;28;20030;-69
2023/11/08 09:39:28;;;;;;;;;;;11.50;99.90;;;;;;5028930;28;20017;-69
2023/11/08 09:41:56;;;;;;;6.07;3.15;;;11.50;99.90;;;;;;5027427;28;19948;-69
2023/11/08 09:44:25;;;;;;;10.98;4.10;;;11.50;99.90;;;;;;5028982;28;20075;-69
2023/11/08 09:46:54;;;;;;;7.72;3.88;;;11.50;99.90;;;;;;5027685;28;20113;-69
2023/11/08 09:49:22;;;;;;;6.05;3.50;;;11.40;99.90;;;;;;5024506;28;20055;-69
2023/11/08 09:51:50;;;;;;;9.10;3.75;;;11.50;99.90;;;;;;5014264;28;20112;-69
2023/11/08 09:54:15;;;;;;;13.30;4.78;;;11.50;99.90;;;;;;5027831;28;20372;-69
2023/11/08 09:56:44;;;;;;;12.05;3.75;;;11.50;99.90;;;;;;5023336;28;20037;-69
2023/11/08 09:59:13;;;;;;;9.52;3.47;;;11.50;99.90;;;;;;5029074;28;20060;-70
2023/11/08 10:01:41;;;;;;;9.73;3.42;;;11.50;99.90;;;;;;5028227;28;20498;-69
2023/11/08 10:04:10;;;;;;;10.20;4.35;;;11.50;99.90;;;;;;5029966;28;20030;-69
2023/11/08 10:06:38;;;;;;;13.55;4.03;;;11.60;99.90;;;;;;5024910;28;20021;-70
2023/11/08 10:09:05;;;;;;;11.95;4.35;;;11.50;99.90;;;;;;5025845;28;20065;-70
2023/11/08 10:11:34;;;;;;;5.85;3.67;;;11.60;99.90;;;;;;5028263;28;20029;-69
2023/11/08 10:14:00;;;;;;;13.25;3.90;;;11.60;99.90;;;;;;5027338;28;20032;-69
2023/11/08 10:16:27;;;;;;;9.32;3.70;;;11.60;99.90;;;;;;5021994;28;20112;-70
2023/11/08 10:18:57;;;;;;;10.80;3.88;;;11.60;99.90;;;;;;5024076;28;20117;-69
2023/11/08 10:21:25;;;;;;;9.70;3.60;;;11.60;99.90;;;;;;5028303;28;20067;-70
2023/11/08 10:23:59;;;;;;;;;;;11.60;99.90;;;;;;5028295;28;20022;-69
2023/11/08 10:26:31;;;;;;;7.05;3.50;;;11.70;99.90;;;;;;5021451;28;20008;-69
2023/11/08 10:29:05;;;;;;;8.65;2.88;;;11.70;99.90;;;;;;5024679;28;20032;-69
2023/11/08 10:31:33;;;;;;;11.73;3.45;;;11.80;99.90;;;;;;5027522;28;20022;-69
2023/11/08 10:34:03;;;;;;;8.52;3.17;;;11.80;99.90;;;;;;5026657;28;20025;-69
2023/11/08 10:36:30;;;;;;;7.07;2.92;;;11.90;99.90;;;;;;5028665;28;20033;-69
2023/11/08 10:38:56;;;;;;;6.22;2.33;;;11.80;99.90;;;;;;5021608;28;20407;-70
2023/11/08 10:41:24;;;;;;;7.70;2.10;;;11.80;99.90;;;;;;5024226;28;20574;-70
2023/11/08 10:44:08;;;;;;;7.68;2.40;;;11.80;99.90;;;;;;5028569;28;20049;-69
2023/11/08 10:46:37;;;;;;;12.63;1.92;;;11.80;99.90;;;;;;5028160;28;20029;-69
2023/11/08 10:49:04;;;;;;;6.25;2.13;;;11.80;99.90;;;;;;5025400;28;20024;-69
2023/11/08 10:51:31;;;;;;;5.57;2.00;;;11.80;99.90;;;;;;5023252;28;20037;-69
2023/11/08 10:53:57;;;;;;;6.20;1.97;;;11.90;99.90;;;;;;5024972;28;20030;-70
2023/11/08 10:56:25;;;;;;;4.60;2.20;;;11.90;99.90;;;;;;5019340;28;20025;-70
2023/11/08 10:58:58;;;;;;;7.03;2.47;;;11.90;99.90;;;;;;5025861;28;20052;-69
2023/11/08 11:01:28;;;;;;;8.48;1.80;;;11.90;99.90;;;;;;5025931;28;20033;-70
2023/11/08 11:03:58;;;;;;;10.57;2.00;;;12.00;99.90;;;;;;5027458;28;20056;-68
2023/11/08 11:06:24;;;;;;;6.32;1.48;;;11.90;99.90;;;;;;5027422;28;20025;-70
2023/11/08 11:08:54;;;;;;;8.15;1.95;;;12.00;99.90;;;;;;5028432;28;20032;-70
2023/11/08 11:11:23;;;;;;;6.40;1.88;;;11.90;99.90;;;;;;5026859;28;20032;-70
2023/11/08 11:13:58;;;;;;;6.18;1.83;;;11.90;99.90;;;;;;5024453;28;20025;-70
2023/11/08 11:16:29;;;;;;;3.95;1.55;;;12.00;99.90;;;;;;5027990;28;20040;-70
2023/11/08 11:19:01;;;;;;;6.28;1.55;;;12.00;99.90;;;;;;5026325;28;20049;-70
2023/11/08 11:21:54;;;;;;;25.08;2.42;;;12.10;99.90;;;;;;5026923;28;22068;-70
2023/11/08 11:24:40;;;;;;;3.97;1.50;;;12.10;99.90;;;;;;5022976;28;20115;-71
2023/11/08 11:27:10;;;;;;;5.38;1.50;;;12.20;99.90;;;;;;5023399;28;20383;-71
2023/11/08 11:29:40;;;;;;;7.45;1.90;;;12.20;99.90;;;;;;5025526;28;20112;-71
2023/11/08 11:32:34;;;;;;;5.57;1.50;;;12.20;99.90;;;;;;5024491;28;20025;-71
2023/11/08 11:35:00;;;;;;;11.88;1.50;;;12.20;99.90;;;;;;5030011;28;20056;-71
2023/11/08 11:37:26;;;;;;;6.78;1.98;;;12.30;99.90;;;;;;5032508;28;20055;-71
2023/11/08 11:39:51;;;;;;;7.30;1.83;;;12.30;99.90;;;;;;5029179;28;20022;-71
2023/11/08 11:42:20;;;;;;;7.15;1.48;;;12.30;99.90;;;;;;5027802;28;20033;-71
2023/11/08 11:44:53;;;;;;;5.63;1.52;;;12.40;99.90;;;;;;5030496;28;20032;-71
2023/11/08 11:47:22;;;;;;;5.90;1.48;;;12.40;99.90;;;;;;5030382;28;20041;-71
2023/11/08 11:49:57;;;;;;;4.13;1.27;;;12.40;99.90;;;;;;5024209;28;20029;-70
2023/11/08 11:52:24;;;;;;;4.85;1.10;;;12.40;99.90;;;;;;5027783;28;20026;-70
2023/11/08 11:54:55;;;;;;;5.60;1.10;;;12.40;99.90;;;;;;5029829;28;20498;-70
2023/11/08 11:57:25;;;;;;;10.93;1.48;;;12.50;99.90;;;;;;5019972;28;20030;-70
2023/11/08 11:59:56;;;;;;;8.90;1.05;;;12.50;99.90;;;;;;5033521;28;20611;-70
2023/11/08 12:02:25;;;;;;;13.93;1.77;;;12.60;99.90;;;;;;5031325;28;20498;-70
2023/11/08 12:04:56;;;;;;;6.82;1.58;;;12.50;99.90;;;;;;5030215;28;20548;-70
2023/11/08 12:07:21;;;;;;;10.25;1.23;;;12.50;99.90;;;;;;5025446;28;20037;-70
2023/11/08 12:09:49;;;;;;;6.10;1.02;;;12.50;99.90;;;;;;5046637;28;20396;-70
2023/11/08 12:12:43;;;;;;;3.83;1.35;;;12.50;99.90;;;;;;5031836;28;20025;-70
2023/11/08 12:15:16;;;;;;;7.05;1.48;;;12.60;99.90;;;;;;5027185;28;20439;-70
2023/11/08 12:17:50;;;;;;;19.67;4.60;;;12.60;99.90;;;;;;5030515;28;20041;-70
2023/11/08 12:20:20;;;;;;;8.93;1.55;;;12.60;99.90;;;;;;5030552;28;20058;-71
2023/11/08 12:22:50;;;;;;;6.80;1.42;;;12.60;99.90;;;;;;5029775;28;20032;-70
2023/11/08 12:25:20;;;;;;;8.52;1.30;;;12.70;99.90;;;;;;5029781;28;20463;-70
2023/11/08 12:27:55;;;;;;;9.65;1.35;;;12.70;99.90;;;;;;5027007;28;20034;-71
2023/11/08 12:30:23;;;;;;;5.90;1.30;;;12.70;99.90;;;;;;5026854;28;20398;-70
2023/11/08 12:32:49;;;;;;;4.70;1.10;;;12.80;99.90;;;;;;5026377;28;20037;-69
2023/11/08 12:35:18;;;;;;;8.40;1.30;;;12.80;99.90;;;;;;5028585;28;20079;-70
2023/11/08 12:37:44;;;;;;;3.97;1.20;;;12.80;99.90;;;;;;5026733;28;20029;-70
2023/11/08 12:40:21;;;;;;;1.90;0.52;;;12.80;99.90;;;;;;5022711;28;20033;-70
2023/11/08 12:42:46;;;;;;;9.07;1.47;;;12.90;99.90;;;;;;5029309;28;20033;-69
2023/11/08 12:45:30;;;;;;;5.43;1.30;;;12.90;99.90;;;;;;5027125;28;20372;-69
2023/11/08 12:48:06;;;;;;;5.95;1.00;;;12.90;99.90;;;;;;5027312;28;20032;-70
2023/11/08 12:50:34;;;;;;;2.25;1.00;;;12.90;99.90;;;;;;5026237;28;20052;-71